ADDS METAR Data INFO
IDs: Format: Raw Decoded Include TAF

Data at: 1126 UTC 17 Jul 2018

KBAC 171115Z AUTO 00000KT 10SM CLR 11/11 A3018 RMK AO2
KBAC 171055Z AUTO 00000KT 10SM CLR 11/11 A3018 RMK AO2
KBAC 171035Z AUTO 00000KT 10SM CLR 12/12 A3018 RMK AO2
KBAC 171015Z AUTO 06005KT 10SM CLR 12/12 A3017 RMK AO2
KBAC 170955Z AUTO 07004KT 10SM FEW070 13/13 A3016 RMK AO2
KBAC 170935Z AUTO 05005KT 10SM SCT070 13/13 A3015 RMK AO2
KBAC 170915Z AUTO 05004KT 10SM CLR 13/13 A3016 RMK AO2
KBAC 170855Z AUTO 06006KT 10SM CLR 13/13 A3016 RMK AO2
KBAC 170835Z AUTO 05004KT 10SM CLR 13/13 A3016 RMK AO2
KBAC 170815Z AUTO 07004KT 10SM CLR 13/13 A3016 RMK AO2
KBAC 170755Z AUTO 11004KT 10SM CLR 13/13 A3016 RMK AO2
KBAC 170735Z AUTO 09003KT 10SM CLR 14/14 A3015 RMK AO2
KBAC 170715Z AUTO 07005KT 10SM CLR 14/14 A3015 RMK AO2
KBAC 170655Z AUTO 08004KT 10SM CLR 14/14 A3014 RMK AO2
KBAC 170635Z AUTO 08004KT 10SM CLR 14/14 A3014 RMK AO2
KBAC 170615Z AUTO 00000KT 10SM CLR 14/14 A3014 RMK AO2 LTG DSNT SW
KBAC 170555Z AUTO 07005KT 10SM CLR 15/15 A3014 RMK AO2
KBAC 170535Z AUTO 08004KT 10SM CLR 15/15 A3014 RMK AO2
KBAC 170515Z AUTO 07004KT 10SM CLR 15/15 A3014 RMK AO2
KBAC 170455Z AUTO 06004KT 10SM CLR 16/15 A3013 RMK AO2
KBAC 170435Z AUTO 00000KT 10SM CLR 16/14 A3013 RMK AO2
KBAC 170415Z AUTO 00000KT 10SM CLR 16/14 A3013 RMK AO2
KBAC 170355Z AUTO 04004KT 10SM CLR 17/14 A3013 RMK AO2
KBAC 170335Z AUTO 00000KT 10SM CLR 17/14 A3012 RMK AO2
KBAC 170315Z AUTO 00000KT 10SM CLR 17/14 A3011 RMK AO2
KBAC 170255Z AUTO 00000KT 10SM CLR 18/13 A3011 RMK AO2
KBAC 170235Z AUTO 01004KT 10SM CLR 19/14 A3010 RMK AO2
KBAC 170215Z AUTO 00000KT 10SM CLR 19/13 A3009 RMK AO2
KBAC 170155Z AUTO 01005KT 10SM CLR 21/13 A3008 RMK AO2
KBAC 170135Z AUTO 01005KT 10SM CLR 22/12 A3008 RMK AO2
KBAC 170115Z AUTO 03006KT 10SM CLR 23/12 A3008 RMK AO2
KBAC 170055Z AUTO 02007KT 10SM CLR 23/12 A3008 RMK AO2
KBAC 170035Z AUTO 02008KT 10SM CLR 24/12 A3008 RMK AO2
KBAC 170015Z AUTO 02008KT 10SM CLR 24/13 A3008 RMK AO2
KBAC 162355Z AUTO VRB03KT 10SM CLR 25/12 A3008 RMK AO2
KBAC 162335Z AUTO 34007KT 10SM CLR 25/12 A3008 RMK AO2
KBAC 162315Z AUTO 36005G14KT 10SM CLR 25/12 A3008 RMK AO2
KBAC 162255Z AUTO 36005G12KT 10SM CLR 25/12 A3008 RMK AO2
KBAC 162235Z AUTO 02008KT 10SM CLR 26/12 A3009 RMK AO2
KBAC 162215Z AUTO 02007G12KT 10SM CLR 25/12 A3009 RMK AO2
KBAC 162155Z AUTO 35009KT 10SM CLR 26/12 A3009 RMK AO2
KBAC 162135Z AUTO 32008KT 10SM CLR 26/12 A3010 RMK AO2
KBAC 162115Z AUTO 32008G15KT 10SM CLR 26/12 A3010 RMK AO2
KBAC 162055Z AUTO 33010KT 10SM CLR 25/12 A3010 RMK AO2
KBAC 162035Z AUTO VRB05KT 10SM CLR 25/12 A3010 RMK AO2
KBAC 162015Z AUTO 32009KT 10SM CLR 25/12 A3010 RMK AO2
KBAC 161955Z AUTO 35007KT 10SM CLR 25/12 A3010 RMK AO2
KBAC 161935Z AUTO VRB06G14KT 10SM CLR 24/12 A3010 RMK AO2
KBAC 161915Z AUTO 29008KT 10SM CLR 25/12 A3010 RMK AO2
KBAC 161855Z AUTO 35008KT 10SM CLR 25/12 A3010 RMK AO2
KBAC 161835Z AUTO 33008KT 310V010 10SM CLR 24/12 A3010 RMK AO2
KBAC 161815Z AUTO VRB04G10KT 10SM CLR 24/12 A3010 RMK AO2
KBAC 161755Z AUTO VRB05KT 10SM CLR 23/12 A3011 RMK AO2
KBAC 161735Z AUTO 36006G13KT 10SM CLR 23/12 A3011 RMK AO2
KBAC 161715Z AUTO VRB05KT 10SM CLR 23/11 A3011 RMK AO2
KBAC 161655Z AUTO 34007KT 10SM CLR 22/11 A3011 RMK AO2
KBAC 161635Z AUTO 34009KT 10SM CLR 22/11 A3011 RMK AO2
KBAC 161615Z AUTO 03006KT 10SM CLR 22/12 A3011 RMK AO2
KBAC 161555Z AUTO 01008KT 10SM CLR 22/12 A3010 RMK AO2
KBAC 161535Z AUTO 36008KT 10SM CLR 22/12 A3010 RMK AO2
KBAC 161515Z AUTO 01009KT 340V040 10SM CLR 21/13 A3009 RMK AO2
KBAC 161455Z AUTO 02008G13KT 10SM CLR 21/13 A3009 RMK AO2
KBAC 161435Z AUTO 01011KT 10SM CLR 20/12 A3009 RMK AO2
KBAC 161415Z AUTO 35010KT 10SM CLR 20/12 A3009 RMK AO2
KBAC 161355Z AUTO 35008KT 10SM CLR 20/13 A3009 RMK AO2
KBAC 161335Z AUTO 34009KT 10SM CLR 20/13 A3009 RMK AO2
KBAC 161315Z AUTO 34010KT 10SM CLR 19/12 A3009 RMK AO2
KBAC 161255Z AUTO 32010KT 10SM CLR 19/12 A3009 RMK AO2
KBAC 161235Z AUTO 32010KT 10SM CLR 19/12 A3008 RMK AO2
KBAC 161215Z AUTO 30008KT 10SM CLR 17/13 A3008 RMK AO2
KBAC 161155Z AUTO 31008KT 10SM CLR 16/13 A3008 RMK AO2
KBAC 161135Z AUTO 30009KT 10SM CLR 15/13 A3007 RMK AO2
KBAC 161115Z AUTO 30009KT 10SM CLR 14/14 A3006 RMK AO2
KBAC 161055Z AUTO 28008KT 10SM CLR 15/13 A3005 RMK AO2
KBAC 161035Z AUTO 26008G13KT 10SM CLR 16/13 A3005 RMK AO2
KBAC 161015Z AUTO 26009KT 10SM CLR 16/13 A3005 RMK AO2
KBAC 160955Z AUTO 25010KT 10SM CLR 16/14 A3004 RMK AO2
KBAC 160935Z AUTO 25011KT 10SM CLR 16/13 A3005 RMK AO2
KBAC 160915Z AUTO 25012KT 10SM CLR 16/13 A3005 RMK AO2
KBAC 160855Z AUTO 25011KT 10SM CLR 16/13 A3005 RMK AO2
KBAC 160835Z AUTO 24009KT 10SM CLR 16/13 A3005 RMK AO2
KBAC 160815Z AUTO 25010KT 10SM CLR 16/13 A3005 RMK AO2
KBAC 160755Z AUTO 25009KT 10SM CLR 16/13 A3005 RMK AO2
KBAC 160735Z AUTO 25009KT 10SM CLR 17/13 A3005 RMK AO2
KBAC 160715Z AUTO 25010KT 10SM CLR 17/14 A3006 RMK AO2
KBAC 160655Z AUTO 25009KT 10SM CLR 17/14 A3006 RMK AO2
KBAC 160635Z AUTO 25010KT 10SM CLR 17/14 A3007 RMK AO2
KBAC 160615Z AUTO 25010KT 10SM CLR 17/14 A3007 RMK AO2
KBAC 160555Z AUTO 25010KT 10SM CLR 17/15 A3007 RMK AO2
KBAC 160535Z AUTO 25010KT 10SM CLR 17/15 A3007 RMK AO2
KBAC 160515Z AUTO 25009KT 10SM CLR 16/15 A3007 RMK AO2
KBAC 160455Z AUTO 25009KT 10SM CLR 16/15 A3007 RMK AO2
KBAC 160435Z AUTO 25009KT 10SM CLR 16/16 A3007 RMK AO2
KBAC 160415Z AUTO 25008KT 10SM CLR 16/16 A3006 RMK AO2
KBAC 160355Z AUTO 25008KT 10SM CLR 16/16 A3006 RMK AO2
KBAC 160335Z AUTO 25007KT 10SM CLR 16/16 A3006 RMK AO2
KBAC 160315Z AUTO 25007KT 10SM CLR 17/15 A3005 RMK AO2
KBAC 160255Z AUTO 26008KT 10SM CLR 17/14 A3005 RMK AO2
KBAC 160235Z AUTO 26008KT 10SM CLR 18/14 A3004 RMK AO2
KBAC 160215Z AUTO 26007KT 10SM CLR 19/14 A3003 RMK AO2
KBAC 160155Z AUTO 26006KT 10SM CLR 20/14 A3003 RMK AO2
KBAC 160135Z AUTO 25006KT 10SM CLR 21/13 A3003 RMK AO2
KBAC 160115Z AUTO 26006KT 10SM CLR 23/13 A3003 RMK AO2
KBAC 160055Z AUTO 26007KT 10SM CLR 23/12 A3004 RMK AO2
KBAC 160035Z AUTO 27009KT 10SM CLR 24/11 A3004 RMK AO2
KBAC 160015Z AUTO 28009G14KT 10SM CLR 24/11 A3004 RMK AO2
KBAC 152355Z AUTO 27011KT 10SM CLR 24/10 A3005 RMK AO2
KBAC 152335Z AUTO 28008G14KT 10SM CLR 24/11 A3005 RMK AO2